Wittenoom, Australia
Current Conditions -  °F | °C
As of 6:00 AM on Monday 26 Jan 2015 (Local Time) from YPBO Reporting Station
Clear Clear  
Wind Chill: 79°   Ceiling: Unl
Heat Index: 81°   Visibility: 6mi
Dew Point: 64°   Wind: 12mph
Humidity: 61%   Direction: 50°NE
Pressure: 29.77"   Gusts: NA
Location:  22.24°S, 118.34°E
Report Text: YPBO 252200Z AUTO 05010KT 9999 // NCD 26/18 Q1008
Loading
Personal Weather Stations






























Interactive Weather Map New forecast layout! Learn more

10-Day Weather Forecast

Advertisements
Track Severe Weather on mobile